Aviation Digital Data Service (ADDS)

Output produced by TAFs form (0201 UTC 28 May 2016)
found at http://www.aviationweather.gov/adds/tafs/
 
TAF KDOV 280001Z 2800/2906 20009KT 9999 FEW040 QNH3002INS TX28/2817Z TN19/2809Z